Terminal Aerodrome Forecast
Issued by NWS

Home | Current Version | Previous Version | Text Only | Print | Product List | Glossary On
Versions: 1 2 3 4 5 6 7 8 9 10 11 12 13 14 15 16 17 18 19 20 21 22
000
FTUS46 KOTX 271737
TAFCOE
TAF
KCOE 271737Z 2718/2818 02014KT P6SM SKC
     FM271900 03016G24KT P6SM FEW250
     FM280100 03019G28KT P6SM SKC
      AMD LTD TO CLD AND VIS=

USA.gov is the U.S. government's official web portal to all federal, state and local government web resources and services.